x

Buoy B01 - Western Maine Shelf (44030) Wave Buoy

4:04 - Thu 25th May 2017 All times are EDT. -4 hours from GMT.

  • Sig Wave height 5.6ft
  • Peak Period 5s
  • Wind
    27mph, 34mph gusts
  • Sea Temp 51°f
  • Ar Temp 51°f
  • Sea Pressure 1009.3mb
  • Buoy B01 - Western Maine Shelf
  • Buoy B01 - Western Maine Shelf

More Historic Weather Station data

Upgrade to MSW Pro to gain access to the past 30 days of data for over 8000 Wavebouys and Weather Stations around the globe.

Join Pro

Comparision Forecast

View Surf forecast
   
Qui 05/25 4:04 5.5ft 5s 27 34 mph 1009.3mb 51f 51f
3:04 5ft 5s 22 27 mph 1010.3mb 52f 51f
2:04 4.5ft 4s 22 27 mph 1010.4mb 52f 52f
1:04 4.5ft 4s 22 25 mph 1011mb 53f 52f
12:04 4.5ft 4s 20 22 mph 1011.2mb 53f 53f
11:04 4.5ft 8s 16 18 mph 1012mb 53f 53f
10:04 4.5ft 8s 13 16 mph 1012.5mb 53f 53f
9:04 4.5ft 8s 13 16 mph 1012.5mb 53f 53f
8:04 4ft 8s 11 16 mph 1012.8mb 53f 53f
7:04 4ft 11s 9 11 mph 1013mb 52f 53f
6:04 3.5ft 11s 7 7 mph 1012.6mb 52f 53f
5:04 3ft 8s 4 7 mph 1012.4mb 52f 53f
4:04 2.5ft 8s 4 4 mph 1011.6mb 52f 52f
3:04 2ft 8s 4 4 mph 1011.7mb 52f 52f
2:04 2.5ft 8s 2 4 mph 1012.1mb 52f 52f
1:04 2.5ft 8s 2 2 mph 1012mb 53f 53f
12:04 3ft 8s 2 2 mph 1011.6mb 53f 53f
Qua 05/24 11:04 3ft 8s 4 4 mph 1011.5mb 53f 54f
10:04 3.5ft 8s 7 7 mph 1011.4mb 54f 54f
9:04 3.5ft 6s 7 9 mph 1010.7mb 54f 54f
8:04 3.5ft 8s 7 9 mph 1009.9mb 54f 55f
7:04 3.5ft 8s 7 7 mph 1009.8mb 54f 55f
6:04 3ft 8s 2 4 mph 1010mb 53f 55f
5:04 2.5ft 8s 2 2 mph 1009.8mb 53f 55f
4:04 2.5ft 8s 4 4 mph 1008.7mb 53f 55f
3:04 2.5ft 8s 4 4 mph 1009.2mb 53f 55f
2:04 2.5ft 8s 4 4 mph 1009.3mb 53f 54f
1:04 2.5ft 8s 7 7 mph 1008.9mb 54f 54f
12:04 2ft 6s 4 7 mph 1009.3mb 53f 54f
11:04 2ft 6s 7 7 mph 1008.9mb 53f 53f
10:04 1.6ft 5s 9 9 mph 1008.4mb 53f 53f
9:04 1.6ft 8s 7 9 mph 1008.6mb 53f 53f
8:04 1.3ft 11s 9 11 mph 1008.4mb 52f 53f
7:04 1.3ft 5s 4 4 mph 1008.6mb 52f 52f
6:04 1.3ft 8s 7 9 mph 1008.3mb 52f 52f
5:04 1.6ft 5s 2 4 mph 1008.2mb 52f 52f
4:04 1.6ft 5s 7 7 mph 1008.6mb 52f 52f
3:04 1.6ft 5s 4 7 mph 1008.2mb 52f 53f
2:04 1.6ft 5s 7 7 mph 1008.5mb 52f 53f
1:04 1.6ft 5s 7 7 mph 1008.7mb 52f 53f
12:04 2ft 5s 7 9 mph 1009.2mb 52f 54f
Ter 05/23 11:04 2ft 5s 9 11 mph 1009.2mb 53f 53f
10:04 1.6ft 5s 11 13 mph 1009.2mb 53f 54f
9:04 2ft 5s 7 7 mph 1009mb 53f 54f
8:04 2ft 5s 9 11 mph 1008.9mb 53f 54f
7:04 2ft 6s 7 9 mph 1009.2mb 53f 54f
6:04 1.6ft 5s 4 7 mph 1009.1mb 53f 54f
5:04 2.5ft 6s 4 7 mph 1009.3mb 54f 54f
4:04 2ft 5s 7 7 mph 1009.5mb 53f 54f
3:04 2.5ft 6s 7 9 mph 1010.1mb 53f 54f
2:04 2.5ft 6s 7 7 mph 1010.7mb 53f 54f
1:04 2.5ft 6s 4 7 mph 1011.5mb 53f 55f
12:04 2.5ft 6s 2 4 mph 1012.2mb 53f 56f
11:04 2.5ft 5s 4 7 mph 1012.2mb 53f 52f
10:04 2ft 5s 9 9 mph 1012.8mb 52f 51f
9:04 2.5ft 5s 7 11 mph 1013mb 52f 50f
8:04 2ft 5s 7 9 mph 1013.4mb 52f 50f
7:04 2.5ft 5s 7 9 mph 1013.1mb 52f 50f
6:04 2ft 5s 7 9 mph 1013mb 51f 50f
5:04 2ft 5s 7 9 mph 1012.9mb 52f 50f
4:04 2.5ft 5s 4 4 mph 1012.9mb 52f 51f
3:04 2ft 5s 2 4 mph 1013.3mb 52f 50f
2:04 2ft 5s 4 7 mph 1013.9mb 52f 50f
1:04 2ft 5s 9 9 mph 1014.2mb 52f 50f
12:04 2.5ft 5s 9 11 mph 1015.2mb 52f 50f
Seg 05/22 11:04 2.5ft 5s 9 11 mph 1015.7mb 52f 50f
10:04 2.5ft 5s 11 13 mph 1016.3mb 52f 50f
9:04 2.5ft 4s 16 18 mph 1016.8mb 52f 49f
8:04 2.5ft 4s 16 20 mph 1016.8mb 52f 49f
7:04 2.5ft 4s 16 20 mph 1017.5mb 52f 49f
6:04 2.5ft 4s 16 20 mph 1018.2mb 51f 49f
5:04 2.5ft 4s 18 22 mph 1018.7mb 52f 49f
4:04 3ft 4s 16 18 mph 1019.6mb 52f 49f
3:04 3ft 4s 18 22 mph 1019.8mb 52f 51f
2:04 2.5ft 3s 20 22 mph 1020.7mb 52f 52f
1:04 1ft 3s 16 18 mph 1020.8mb 53f 52f
12:04 1ft 8s 9 11 mph 1021.7mb 53f 52f
11:04 0.7ft  -  7 7 mph 1022.1mb 53f 52f
10:04 1ft 16s 4 4 mph 1022.5mb 52f 51f
9:04 1ft 8s 2 4 mph 1022.5mb 51f 51f
8:04 1ft 16s 7 9 mph 1023.2mb 51f 51f
7:04 0.7ft  -  7 9 mph 1023mb 51f 52f
6:04 1ft 4s 7 7 mph 1022.4mb 52f 52f
5:04 1.3ft 8s 7 9 mph 1022.6mb 52f 53f
4:04 1.3ft 4s 9 9 mph 1022.5mb 52f 53f
3:04 1.3ft 4s 7 7 mph 1022.3mb 52f 53f
2:04 1.6ft 4s 9 9 mph 1022.9mb 52f 53f
1:04 1.6ft 4s 9 9 mph 1023.2mb 52f 53f
12:04 1.6ft 3s 11 13 mph 1023.5mb 52f 53f
Dom 05/21 11:04 1.3ft 3s 11 13 mph 1023.8mb 52f 54f
10:04 1.3ft 4s 9 11 mph 1024.4mb 52f 53f